Aérodrome :
LOGIN :

S'inscrire | Disclaimer

   EN    FR    IT 

 










Légende :    VFR   VFR Marginal   IFR   IFR Intensif   IFR Très Intensif
Visi : 
Plafond : 
>= 8 km
>= 3000ft
5 à 8 km
1000 à 3000 ft
1500m à 5 km
500 à 1000 ft
800 à 1500m
200 à 500 ft
< 800m
< 200 ft
Symboles :   Orages  Brouillard  Fortes neiges  Fortes précipitations  Vent > 20 kt
SIGMETs :   Divers  Orages  Givrage  Turbulence  Onde Orograph.  Cendres Volcan.






- Altitude de l'aérodrome : 286 ft
- Code IATA : FFD


EGVA - RAF Fairford

DERNIER METAR :
  • 250551Z AUTO 00000KT 1600 R27/0900VP1500 BR SCT000 07/07 A3056 RMK AO2 VIS 1600V9999 SLP352 $

METARs EXPIRÉS :
  • 250548Z AUTO 00000KT 3600 BR SCT000 07/07 A3056 RMK AO2 VIS 3600V9999 VIS 0800 RWY09 SLP352 $
  • 250538Z AUTO 00000KT 9000 BR SCT000 07/07 A3056 RMK AO2 VIS 1200 RWY09 SLP352 $
  • 250533Z AUTO 00000KT 2600 BR SCT000 07/07 A3056 RMK AO2 VIS 0600V2600 VIS 0800 RWY09 SLP352 $
  • 250522Z AUTO 00000KT 0600 R27/0550V1000 FG VV000 07/07 A3056 RMK AO2 SLP352 $
  • 250506Z AUTO 00000KT 0400 R27/0500V0600 FG VV000 07/07 A3056 RMK AO2 SLP352 $
  • 250456Z AUTO 00000KT 0200 R27/0350V0550 FG VV000 07/07 A3056 RMK AO2 SLP352 T00670067 $
  • 250441Z AUTO 00000KT 0200 R27/0350V0750 FG VV000 07/07 A3055 RMK AO2 SLP348 $
  • 250426Z AUTO 00000KT 0400 R27/0550V0800 FG VV000 07/07 A3055 RMK AO2 SLP348 $
  • 250416Z AUTO 00000KT 0200 R27/0550V0750 FG VV000 07/07 A3055 RMK AO2 SLP348 $
  • 250411Z AUTO 00000KT 0400 R27/0550V0750 FG VV000 07/07 A3055 RMK AO2 SLP348 $
  • 250352Z AUTO 00000KT 0200 R27/0500V0650 FG BKN000 07/07 A3055 RMK AO2 SLP348 $
  • 250337Z AUTO 00000KT 0600 R27/0600V1300 FG BKN000 07/07 A3055 RMK AO2 BKN V FEW SLP348 $
  • 250332Z AUTO 00000KT 0400 R27/0500V0800 FG SCT000 07/07 A3054 RMK AO2 SLP345 $
  • 250322Z AUTO 27003KT 0400 R27/0450V0550 FG FEW001 07/07 A3054 RMK AO2 SLP345 $
  • 250312Z AUTO 00000KT 1400 R27/0650VP1500 BR SCT001 07/07 A3054 RMK AO2 VIS 1400V9999 SLP345 $

Prévision TAF périmée.



MET'MAP, la Météo Aéronautique d'un coup d'oeil ! - Copyright ORBIFLY Décembre 2007 - Disclaimer

ORBIFLY MET'MAP TEAM :

Programmation & Développement : Alexandra Zaïnal
Sur une idée originale de : Baudouin d'Aumeries
Assistance à la programmation : Marc-Olivier Méhu
Soutien technique & logistique : Manuel Goepfert

Contact : metmap@orbifly.com




SOURCES & CREDITS :

   NOAA